sensor_id;sensor_type;location;lat;lon;timestamp;P1;durP1;ratioP1;P2;durP2;ratioP2
17189;SDS011;8710;49.880;8.272;2022-08-05T00:01:39;11.15;;;4.32;;
17189;SDS011;8710;49.880;8.272;2022-08-05T00:04:06;10.73;;;4.82;;
17189;SDS011;8710;49.880;8.272;2022-08-05T00:06:33;7.88;;;4.88;;
17189;SDS011;8710;49.880;8.272;2022-08-05T00:09:00;8.88;;;4.85;;
17189;SDS011;8710;49.880;8.272;2022-08-05T00:11:27;12.02;;;5.95;;
17189;SDS011;8710;49.880;8.272;2022-08-05T00:13:55;5.95;;;4.82;;
17189;SDS011;8710;49.880;8.272;2022-08-05T00:16:23;8.20;;;5.97;;
17189;SDS011;8710;49.880;8.272;2022-08-05T00:18:50;9.90;;;5.90;;
17189;SDS011;8710;49.880;8.272;2022-08-05T00:21:17;7.72;;;5.70;;
17189;SDS011;8710;49.880;8.272;2022-08-05T00:23:45;7.22;;;5.95;;
17189;SDS011;8710;49.880;8.272;2022-08-05T00:26:13;6.13;;;5.13;;
17189;SDS011;8710;49.880;8.272;2022-08-05T00:28:40;6.00;;;5.47;;
17189;SDS011;8710;49.880;8.272;2022-08-05T00:31:07;7.35;;;5.30;;
17189;SDS011;8710;49.880;8.272;2022-08-05T00:33:36;6.35;;;5.28;;
17189;SDS011;8710;49.880;8.272;2022-08-05T00:36:03;6.68;;;5.28;;
17189;SDS011;8710;49.880;8.272;2022-08-05T00:38:31;6.30;;;5.07;;
17189;SDS011;8710;49.880;8.272;2022-08-05T00:40:58;8.75;;;5.15;;
17189;SDS011;8710;49.880;8.272;2022-08-05T00:43:25;5.93;;;5.03;;
17189;SDS011;8710;49.880;8.272;2022-08-05T00:45:53;6.95;;;4.80;;
17189;SDS011;8710;49.880;8.272;2022-08-05T00:48:21;6.47;;;4.88;;
17189;SDS011;8710;49.880;8.272;2022-08-05T00:50:50;7.05;;;4.97;;
17189;SDS011;8710;49.880;8.272;2022-08-05T00:53:18;5.47;;;4.97;;
17189;SDS011;8710;49.880;8.272;2022-08-05T00:55:46;6.60;;;4.65;;
17189;SDS011;8710;49.880;8.272;2022-08-05T00:58:14;6.72;;;4.70;;
17189;SDS011;8710;49.880;8.272;2022-08-05T01:00:42;5.88;;;4.30;;
17189;SDS011;8710;49.880;8.272;2022-08-05T01:03:09;5.38;;;4.25;;
17189;SDS011;8710;49.880;8.272;2022-08-05T01:05:36;5.10;;;4.30;;
17189;SDS011;8710;49.880;8.272;2022-08-05T01:08:05;6.32;;;4.78;;
17189;SDS011;8710;49.880;8.272;2022-08-05T01:10:34;6.35;;;4.45;;
17189;SDS011;8710;49.880;8.272;2022-08-05T01:13:06;6.28;;;3.85;;
17189;SDS011;8710;49.880;8.272;2022-08-05T01:15:38;4.93;;;4.43;;
17189;SDS011;8710;49.880;8.272;2022-08-05T01:18:11;6.30;;;4.10;;
17189;SDS011;8710;49.880;8.272;2022-08-05T01:20:45;5.25;;;3.78;;
17189;SDS011;8710;49.880;8.272;2022-08-05T01:23:24;6.28;;;4.13;;
17189;SDS011;8710;49.880;8.272;2022-08-05T01:26:06;4.32;;;3.58;;
17189;SDS011;8710;49.880;8.272;2022-08-05T01:28:49;4.40;;;3.58;;
17189;SDS011;8710;49.880;8.272;2022-08-05T01:31:23;5.05;;;3.83;;
17189;SDS011;8710;49.880;8.272;2022-08-05T01:33:55;5.68;;;3.95;;
17189;SDS011;8710;49.880;8.272;2022-08-05T01:36:28;3.85;;;3.50;;
17189;SDS011;8710;49.880;8.272;2022-08-05T01:38:59;6.00;;;3.90;;
17189;SDS011;8710;49.880;8.272;2022-08-05T01:41:28;6.00;;;3.80;;
17189;SDS011;8710;49.880;8.272;2022-08-05T01:44:01;4.32;;;3.50;;
17189;SDS011;8710;49.880;8.272;2022-08-05T01:46:31;6.63;;;3.72;;
17189;SDS011;8710;49.880;8.272;2022-08-05T01:48:59;6.40;;;3.42;;
17189;SDS011;8710;49.880;8.272;2022-08-05T01:51:29;4.75;;;3.25;;
17189;SDS011;8710;49.880;8.272;2022-08-05T01:53:59;4.53;;;3.33;;
17189;SDS011;8710;49.880;8.272;2022-08-05T01:56:28;4.30;;;3.67;;
17189;SDS011;8710;49.880;8.272;2022-08-05T01:58:57;4.15;;;3.30;;
17189;SDS011;8710;49.880;8.272;2022-08-05T02:01:26;3.30;;;2.97;;
17189;SDS011;8710;49.880;8.272;2022-08-05T02:03:53;6.80;;;3.45;;
17189;SDS011;8710;49.880;8.272;2022-08-05T02:06:22;5.18;;;3.30;;
17189;SDS011;8710;49.880;8.272;2022-08-05T02:08:49;4.38;;;3.30;;
17189;SDS011;8710;49.880;8.272;2022-08-05T02:11:16;8.45;;;3.25;;
17189;SDS011;8710;49.880;8.272;2022-08-05T02:13:46;8.75;;;4.70;;
17189;SDS011;8710;49.880;8.272;2022-08-05T02:16:19;11.02;;;4.93;;
17189;SDS011;8710;49.880;8.272;2022-08-05T02:18:51;7.13;;;3.42;;
17189;SDS011;8710;49.880;8.272;2022-08-05T02:21:21;4.07;;;2.72;;
17189;SDS011;8710;49.880;8.272;2022-08-05T02:23:54;12.35;;;4.75;;
17189;SDS011;8710;49.880;8.272;2022-08-05T02:26:32;9.43;;;5.13;;
17189;SDS011;8710;49.880;8.272;2022-08-05T02:29:05;7.65;;;4.65;;
17189;SDS011;8710;49.880;8.272;2022-08-05T02:31:33;9.18;;;5.28;;
17189;SDS011;8710;49.880;8.272;2022-08-05T02:34:04;8.50;;;5.30;;
17189;SDS011;8710;49.880;8.272;2022-08-05T02:36:34;9.95;;;5.68;;
17189;SDS011;8710;49.880;8.272;2022-08-05T02:39:04;11.10;;;6.88;;
17189;SDS011;8710;49.880;8.272;2022-08-05T02:41:33;12.30;;;6.10;;
17189;SDS011;8710;49.880;8.272;2022-08-05T02:44:00;7.63;;;6.00;;
17189;SDS011;8710;49.880;8.272;2022-08-05T02:46:28;7.70;;;5.75;;
17189;SDS011;8710;49.880;8.272;2022-08-05T02:48:56;7.15;;;6.40;;
17189;SDS011;8710;49.880;8.272;2022-08-05T02:51:24;9.23;;;6.68;;
17189;SDS011;8710;49.880;8.272;2022-08-05T02:53:52;9.77;;;5.85;;
17189;SDS011;8710;49.880;8.272;2022-08-05T02:56:20;8.00;;;6.80;;
17189;SDS011;8710;49.880;8.272;2022-08-05T02:58:47;7.80;;;7.00;;
17189;SDS011;8710;49.880;8.272;2022-08-05T03:01:16;11.77;;;7.13;;
17189;SDS011;8710;49.880;8.272;2022-08-05T03:03:46;8.55;;;7.47;;
17189;SDS011;8710;49.880;8.272;2022-08-05T03:06:15;10.18;;;7.70;;
17189;SDS011;8710;49.880;8.272;2022-08-05T03:08:44;10.18;;;7.75;;
17189;SDS011;8710;49.880;8.272;2022-08-05T03:11:15;9.52;;;7.38;;
17189;SDS011;8710;49.880;8.272;2022-08-05T03:13:43;10.25;;;7.40;;
17189;SDS011;8710;49.880;8.272;2022-08-05T03:16:10;11.77;;;7.80;;
17189;SDS011;8710;49.880;8.272;2022-08-05T03:18:37;11.68;;;7.45;;
17189;SDS011;8710;49.880;8.272;2022-08-05T03:21:04;13.30;;;7.47;;
17189;SDS011;8710;49.880;8.272;2022-08-05T03:23:32;13.77;;;8.00;;
17189;SDS011;8710;49.880;8.272;2022-08-05T03:26:01;9.88;;;7.40;;
17189;SDS011;8710;49.880;8.272;2022-08-05T03:28:28;10.68;;;7.80;;
17189;SDS011;8710;49.880;8.272;2022-08-05T03:30:56;10.75;;;8.70;;
17189;SDS011;8710;49.880;8.272;2022-08-05T03:33:24;15.68;;;9.63;;
17189;SDS011;8710;49.880;8.272;2022-08-05T03:35:53;21.38;;;11.60;;
17189;SDS011;8710;49.880;8.272;2022-08-05T03:38:21;15.63;;;10.63;;
17189;SDS011;8710;49.880;8.272;2022-08-05T03:40:48;17.50;;;11.02;;
17189;SDS011;8710;49.880;8.272;2022-08-05T03:43:18;14.73;;;10.57;;
17189;SDS011;8710;49.880;8.272;2022-08-05T03:45:48;9.52;;;8.55;;
17189;SDS011;8710;49.880;8.272;2022-08-05T03:48:15;10.25;;;7.60;;
17189;SDS011;8710;49.880;8.272;2022-08-05T03:50:44;10.82;;;6.70;;
17189;SDS011;8710;49.880;8.272;2022-08-05T03:53:18;8.93;;;6.22;;
17189;SDS011;8710;49.880;8.272;2022-08-05T03:55:51;6.18;;;5.07;;
17189;SDS011;8710;49.880;8.272;2022-08-05T03:58:27;5.47;;;4.80;;
17189;SDS011;8710;49.880;8.272;2022-08-05T04:00:58;6.03;;;5.53;;
17189;SDS011;8710;49.880;8.272;2022-08-05T04:03:27;8.38;;;5.70;;
17189;SDS011;8710;49.880;8.272;2022-08-05T04:06:00;8.32;;;5.28;;
17189;SDS011;8710;49.880;8.272;2022-08-05T04:08:28;5.95;;;5.00;;
17189;SDS011;8710;49.880;8.272;2022-08-05T04:10:55;10.88;;;5.80;;
17189;SDS011;8710;49.880;8.272;2022-08-05T04:13:23;6.85;;;6.25;;
17189;SDS011;8710;49.880;8.272;2022-08-05T04:15:52;8.52;;;6.60;;
17189;SDS011;8710;49.880;8.272;2022-08-05T04:18:21;9.40;;;6.15;;
17189;SDS011;8710;49.880;8.272;2022-08-05T04:20:51;8.57;;;6.85;;
17189;SDS011;8710;49.880;8.272;2022-08-05T04:23:19;5.97;;;5.38;;
17189;SDS011;8710;49.880;8.272;2022-08-05T04:25:48;6.15;;;4.90;;
17189;SDS011;8710;49.880;8.272;2022-08-05T04:28:15;6.53;;;4.93;;
17189;SDS011;8710;49.880;8.272;2022-08-05T04:30:42;5.03;;;4.25;;
17189;SDS011;8710;49.880;8.272;2022-08-05T04:33:11;7.13;;;4.55;;
17189;SDS011;8710;49.880;8.272;2022-08-05T04:35:38;6.30;;;4.15;;
17189;SDS011;8710;49.880;8.272;2022-08-05T04:38:05;7.18;;;4.95;;
17189;SDS011;8710;49.880;8.272;2022-08-05T04:40:33;5.38;;;4.80;;
17189;SDS011;8710;49.880;8.272;2022-08-05T04:43:00;9.00;;;5.00;;
17189;SDS011;8710;49.880;8.272;2022-08-05T04:45:27;6.75;;;4.85;;
17189;SDS011;8710;49.880;8.272;2022-08-05T04:48:01;6.28;;;5.32;;
17189;SDS011;8710;49.880;8.272;2022-08-05T04:50:31;6.90;;;5.03;;
17189;SDS011;8710;49.880;8.272;2022-08-05T04:53:03;7.07;;;4.88;;
17189;SDS011;8710;49.880;8.272;2022-08-05T04:55:30;7.63;;;4.90;;
17189;SDS011;8710;49.880;8.272;2022-08-05T04:57:57;6.30;;;5.00;;
17189;SDS011;8710;49.880;8.272;2022-08-05T05:00:24;5.03;;;4.53;;
17189;SDS011;8710;49.880;8.272;2022-08-05T05:02:51;5.72;;;4.40;;
17189;SDS011;8710;49.880;8.272;2022-08-05T05:05:18;6.43;;;4.60;;
17189;SDS011;8710;49.880;8.272;2022-08-05T05:07:46;5.85;;;4.80;;
17189;SDS011;8710;49.880;8.272;2022-08-05T05:10:13;6.05;;;4.22;;
17189;SDS011;8710;49.880;8.272;2022-08-05T05:12:40;5.55;;;4.65;;
17189;SDS011;8710;49.880;8.272;2022-08-05T05:15:07;4.85;;;4.43;;
17189;SDS011;8710;49.880;8.272;2022-08-05T05:17:35;5.93;;;4.72;;
17189;SDS011;8710;49.880;8.272;2022-08-05T05:20:03;7.72;;;4.72;;
17189;SDS011;8710;49.880;8.272;2022-08-05T05:22:31;6.50;;;4.40;;
17189;SDS011;8710;49.880;8.272;2022-08-05T05:24:59;5.10;;;4.50;;
17189;SDS011;8710;49.880;8.272;2022-08-05T05:27:26;5.50;;;4.45;;
17189;SDS011;8710;49.880;8.272;2022-08-05T05:29:54;5.05;;;4.38;;
17189;SDS011;8710;49.880;8.272;2022-08-05T05:32:21;5.80;;;4.18;;
17189;SDS011;8710;49.880;8.272;2022-08-05T05:34:48;7.00;;;4.30;;
17189;SDS011;8710;49.880;8.272;2022-08-05T05:37:15;6.97;;;4.53;;
17189;SDS011;8710;49.880;8.272;2022-08-05T05:39:42;5.68;;;4.88;;
17189;SDS011;8710;49.880;8.272;2022-08-05T05:42:11;4.47;;;4.07;;
17189;SDS011;8710;49.880;8.272;2022-08-05T05:44:38;4.40;;;3.97;;
17189;SDS011;8710;49.880;8.272;2022-08-05T05:47:05;7.05;;;3.90;;
17189;SDS011;8710;49.880;8.272;2022-08-05T05:49:32;6.30;;;4.43;;
17189;SDS011;8710;49.880;8.272;2022-08-05T05:51:59;4.40;;;4.00;;
17189;SDS011;8710;49.880;8.272;2022-08-05T05:54:26;7.07;;;3.95;;
17189;SDS011;8710;49.880;8.272;2022-08-05T05:56:53;4.05;;;3.67;;
17189;SDS011;8710;49.880;8.272;2022-08-05T05:59:21;4.70;;;4.18;;
17189;SDS011;8710;49.880;8.272;2022-08-05T06:01:49;4.63;;;4.05;;
17189;SDS011;8710;49.880;8.272;2022-08-05T06:04:15;4.53;;;4.10;;
17189;SDS011;8710;49.880;8.272;2022-08-05T06:06:43;4.57;;;4.00;;
17189;SDS011;8710;49.880;8.272;2022-08-05T06:09:10;4.95;;;4.20;;
17189;SDS011;8710;49.880;8.272;2022-08-05T06:11:37;5.72;;;4.00;;
17189;SDS011;8710;49.880;8.272;2022-08-05T06:14:04;4.85;;;4.05;;
17189;SDS011;8710;49.880;8.272;2022-08-05T06:16:32;4.07;;;3.78;;
17189;SDS011;8710;49.880;8.272;2022-08-05T06:19:00;5.20;;;4.80;;
17189;SDS011;8710;49.880;8.272;2022-08-05T06:21:27;4.38;;;3.35;;
17189;SDS011;8710;49.880;8.272;2022-08-05T06:23:56;5.35;;;3.95;;
17189;SDS011;8710;49.880;8.272;2022-08-05T06:26:23;4.30;;;3.67;;
17189;SDS011;8710;49.880;8.272;2022-08-05T06:28:50;4.60;;;3.80;;
17189;SDS011;8710;49.880;8.272;2022-08-05T06:31:17;4.20;;;3.80;;
17189;SDS011;8710;49.880;8.272;2022-08-05T06:33:45;4.90;;;3.90;;
17189;SDS011;8710;49.880;8.272;2022-08-05T06:36:12;4.45;;;4.05;;
17189;SDS011;8710;49.880;8.272;2022-08-05T06:38:39;5.00;;;4.35;;
17189;SDS011;8710;49.880;8.272;2022-08-05T06:41:06;7.25;;;4.22;;
17189;SDS011;8710;49.880;8.272;2022-08-05T06:43:33;5.22;;;4.35;;
17189;SDS011;8710;49.880;8.272;2022-08-05T06:46:00;5.93;;;4.50;;
17189;SDS011;8710;49.880;8.272;2022-08-05T06:48:27;6.25;;;4.90;;
17189;SDS011;8710;49.880;8.272;2022-08-05T06:50:55;5.85;;;4.85;;
17189;SDS011;8710;49.880;8.272;2022-08-05T06:53:22;5.43;;;4.43;;
17189;SDS011;8710;49.880;8.272;2022-08-05T06:55:49;6.72;;;4.38;;
17189;SDS011;8710;49.880;8.272;2022-08-05T06:58:16;4.22;;;3.72;;
17189;SDS011;8710;49.880;8.272;2022-08-05T07:00:43;4.90;;;4.22;;
17189;SDS011;8710;49.880;8.272;2022-08-05T07:03:10;6.05;;;4.22;;
17189;SDS011;8710;49.880;8.272;2022-08-05T07:05:37;5.95;;;4.78;;
17189;SDS011;8710;49.880;8.272;2022-08-05T07:08:05;5.05;;;4.55;;
17189;SDS011;8710;49.880;8.272;2022-08-05T07:10:32;6.20;;;4.55;;
17189;SDS011;8710;49.880;8.272;2022-08-05T07:12:59;6.25;;;4.47;;
17189;SDS011;8710;49.880;8.272;2022-08-05T07:15:43;6.13;;;4.82;;
17189;SDS011;8710;49.880;8.272;2022-08-05T07:18:28;5.85;;;4.40;;
17189;SDS011;8710;49.880;8.272;2022-08-05T07:20:55;5.32;;;4.35;;
17189;SDS011;8710;49.880;8.272;2022-08-05T07:23:23;4.80;;;4.05;;
17189;SDS011;8710;49.880;8.272;2022-08-05T07:25:50;5.55;;;4.50;;
17189;SDS011;8710;49.880;8.272;2022-08-05T07:28:17;4.65;;;4.10;;
17189;SDS011;8710;49.880;8.272;2022-08-05T07:30:44;6.72;;;3.95;;
17189;SDS011;8710;49.880;8.272;2022-08-05T07:33:11;4.13;;;3.78;;
17189;SDS011;8710;49.880;8.272;2022-08-05T07:35:38;5.93;;;4.43;;
17189;SDS011;8710;49.880;8.272;2022-08-05T07:38:06;4.65;;;3.85;;
17189;SDS011;8710;49.880;8.272;2022-08-05T07:40:34;4.45;;;4.05;;
17189;SDS011;8710;49.880;8.272;2022-08-05T07:43:01;7.55;;;3.67;;
17189;SDS011;8710;49.880;8.272;2022-08-05T07:45:28;4.20;;;3.30;;
17189;SDS011;8710;49.880;8.272;2022-08-05T07:47:55;6.85;;;3.97;;
17189;SDS011;8710;49.880;8.272;2022-08-05T07:50:22;3.88;;;3.58;;
17189;SDS011;8710;49.880;8.272;2022-08-05T07:52:49;4.45;;;3.83;;
17189;SDS011;8710;49.880;8.272;2022-08-05T07:55:15;3.88;;;3.50;;
17189;SDS011;8710;49.880;8.272;2022-08-05T07:57:44;4.25;;;3.85;;
17189;SDS011;8710;49.880;8.272;2022-08-05T08:00:11;6.53;;;4.13;;
17189;SDS011;8710;49.880;8.272;2022-08-05T08:02:39;4.05;;;3.47;;
17189;SDS011;8710;49.880;8.272;2022-08-05T08:05:08;4.70;;;3.65;;
17189;SDS011;8710;49.880;8.272;2022-08-05T08:07:35;4.35;;;3.45;;
17189;SDS011;8710;49.880;8.272;2022-08-05T08:10:03;6.70;;;3.95;;
17189;SDS011;8710;49.880;8.272;2022-08-05T08:12:30;4.95;;;3.72;;
17189;SDS011;8710;49.880;8.272;2022-08-05T08:14:59;4.22;;;3.67;;
17189;SDS011;8710;49.880;8.272;2022-08-05T08:17:26;5.22;;;3.58;;
17189;SDS011;8710;49.880;8.272;2022-08-05T08:19:53;4.65;;;3.67;;
17189;SDS011;8710;49.880;8.272;2022-08-05T08:22:23;4.80;;;3.60;;
17189;SDS011;8710;49.880;8.272;2022-08-05T08:24:51;4.38;;;3.40;;
17189;SDS011;8710;49.880;8.272;2022-08-05T08:27:18;3.70;;;3.40;;
17189;SDS011;8710;49.880;8.272;2022-08-05T08:29:45;5.20;;;3.50;;
17189;SDS011;8710;49.880;8.272;2022-08-05T08:32:13;5.28;;;3.78;;
17189;SDS011;8710;49.880;8.272;2022-08-05T08:34:40;4.18;;;3.60;;
17189;SDS011;8710;49.880;8.272;2022-08-05T08:37:07;6.05;;;3.55;;
17189;SDS011;8710;49.880;8.272;2022-08-05T08:39:34;4.22;;;3.20;;
17189;SDS011;8710;49.880;8.272;2022-08-05T08:42:01;4.03;;;3.65;;
17189;SDS011;8710;49.880;8.272;2022-08-05T08:44:29;6.18;;;3.92;;
17189;SDS011;8710;49.880;8.272;2022-08-05T08:46:57;4.30;;;3.58;;
17189;SDS011;8710;49.880;8.272;2022-08-05T08:49:26;4.07;;;2.90;;
17189;SDS011;8710;49.880;8.272;2022-08-05T08:51:57;3.58;;;2.97;;
17189;SDS011;8710;49.880;8.272;2022-08-05T08:54:37;4.20;;;3.13;;
17189;SDS011;8710;49.880;8.272;2022-08-05T08:57:04;2.85;;;2.38;;
17189;SDS011;8710;49.880;8.272;2022-08-05T08:59:33;3.03;;;2.72;;
17189;SDS011;8710;49.880;8.272;2022-08-05T09:02:00;6.18;;;2.58;;
17189;SDS011;8710;49.880;8.272;2022-08-05T09:04:34;4.20;;;2.90;;
17189;SDS011;8710;49.880;8.272;2022-08-05T09:07:02;4.28;;;2.58;;
17189;SDS011;8710;49.880;8.272;2022-08-05T09:09:30;4.05;;;2.75;;
17189;SDS011;8710;49.880;8.272;2022-08-05T09:11:57;2.47;;;2.28;;
17189;SDS011;8710;49.880;8.272;2022-08-05T09:14:25;2.60;;;2.40;;
17189;SDS011;8710;49.880;8.272;2022-08-05T09:16:52;5.80;;;2.60;;
17189;SDS011;8710;49.880;8.272;2022-08-05T09:19:19;2.50;;;2.30;;
17189;SDS011;8710;49.880;8.272;2022-08-05T09:21:47;3.33;;;2.40;;
17189;SDS011;8710;49.880;8.272;2022-08-05T09:24:14;2.67;;;2.47;;
17189;SDS011;8710;49.880;8.272;2022-08-05T09:26:45;2.70;;;2.50;;
17189;SDS011;8710;49.880;8.272;2022-08-05T09:29:12;2.80;;;2.60;;
17189;SDS011;8710;49.880;8.272;2022-08-05T09:31:39;4.13;;;2.63;;
17189;SDS011;8710;49.880;8.272;2022-08-05T09:34:08;3.03;;;2.72;;
17189;SDS011;8710;49.880;8.272;2022-08-05T09:36:40;2.78;;;2.58;;
17189;SDS011;8710;49.880;8.272;2022-08-05T09:39:10;4.85;;;2.60;;
17189;SDS011;8710;49.880;8.272;2022-08-05T09:41:53;3.33;;;2.60;;
17189;SDS011;8710;49.880;8.272;2022-08-05T09:44:37;3.65;;;2.50;;
17189;SDS011;8710;49.880;8.272;2022-08-05T09:47:06;3.17;;;2.65;;
17189;SDS011;8710;49.880;8.272;2022-08-05T09:49:38;3.50;;;2.53;;
17189;SDS011;8710;49.880;8.272;2022-08-05T09:52:16;2.78;;;2.53;;
17189;SDS011;8710;49.880;8.272;2022-08-05T09:54:56;3.28;;;2.90;;
17189;SDS011;8710;49.880;8.272;2022-08-05T09:57:31;2.70;;;2.50;;
17189;SDS011;8710;49.880;8.272;2022-08-05T10:00:03;4.07;;;2.80;;
17189;SDS011;8710;49.880;8.272;2022-08-05T10:02:35;4.72;;;2.70;;
17189;SDS011;8710;49.880;8.272;2022-08-05T10:05:08;3.15;;;2.70;;
17189;SDS011;8710;49.880;8.272;2022-08-05T10:07:47;3.53;;;3.20;;
17189;SDS011;8710;49.880;8.272;2022-08-05T10:10:18;2.85;;;2.63;;
17189;SDS011;8710;49.880;8.272;2022-08-05T10:12:47;3.08;;;2.50;;
17189;SDS011;8710;49.880;8.272;2022-08-05T10:15:20;2.80;;;2.60;;
17189;SDS011;8710;49.880;8.272;2022-08-05T10:18:05;3.08;;;2.80;;
17189;SDS011;8710;49.880;8.272;2022-08-05T10:20:38;2.70;;;2.50;;
17189;SDS011;8710;49.880;8.272;2022-08-05T10:23:08;3.22;;;2.72;;
17189;SDS011;8710;49.880;8.272;2022-08-05T10:25:38;4.28;;;2.63;;
17189;SDS011;8710;49.880;8.272;2022-08-05T10:28:05;3.55;;;2.60;;
17189;SDS011;8710;49.880;8.272;2022-08-05T10:30:33;3.92;;;2.70;;
17189;SDS011;8710;49.880;8.272;2022-08-05T10:33:00;2.72;;;2.53;;
17189;SDS011;8710;49.880;8.272;2022-08-05T10:35:28;3.03;;;2.72;;
17189;SDS011;8710;49.880;8.272;2022-08-05T10:37:55;5.13;;;2.90;;
17189;SDS011;8710;49.880;8.272;2022-08-05T10:40:27;3.70;;;2.70;;
17189;SDS011;8710;49.880;8.272;2022-08-05T10:43:00;2.67;;;2.47;;
17189;SDS011;8710;49.880;8.272;2022-08-05T10:45:36;3.03;;;2.72;;
17189;SDS011;8710;49.880;8.272;2022-08-05T10:50:59;2.67;;;2.47;;
17189;SDS011;8710;49.880;8.272;2022-08-05T10:53:32;3.00;;;2.78;;
17189;SDS011;8710;49.880;8.272;2022-08-05T10:56:01;3.22;;;2.92;;
17189;SDS011;8710;49.880;8.272;2022-08-05T10:58:30;6.20;;;2.42;;
17189;SDS011;8710;49.880;8.272;2022-08-05T11:00:57;4.70;;;2.58;;
17189;SDS011;8710;49.880;8.272;2022-08-05T11:03:24;3.08;;;2.78;;
17189;SDS011;8710;49.880;8.272;2022-08-05T11:06:04;3.00;;;2.80;;
17189;SDS011;8710;49.880;8.272;2022-08-05T11:08:33;4.25;;;3.03;;
17189;SDS011;8710;49.880;8.272;2022-08-05T11:14:00;4.00;;;2.75;;
17189;SDS011;8710;49.880;8.272;2022-08-05T11:16:28;3.28;;;2.88;;
17189;SDS011;8710;49.880;8.272;2022-08-05T11:21:50;3.05;;;2.75;;
17189;SDS011;8710;49.880;8.272;2022-08-05T11:24:17;2.83;;;2.63;;
17189;SDS011;8710;49.880;8.272;2022-08-05T11:26:45;3.03;;;2.83;;
17189;SDS011;8710;49.880;8.272;2022-08-05T11:32:22;3.55;;;3.08;;
17189;SDS011;8710;49.880;8.272;2022-08-05T11:34:51;3.08;;;2.85;;
17189;SDS011;8710;49.880;8.272;2022-08-05T11:43:24;4.20;;;3.00;;
17189;SDS011;8710;49.880;8.272;2022-08-05T11:45:53;3.22;;;2.92;;
17189;SDS011;8710;49.880;8.272;2022-08-05T11:48:20;3.67;;;3.13;;
17189;SDS011;8710;49.880;8.272;2022-08-05T11:50:48;3.20;;;2.80;;
17189;SDS011;8710;49.880;8.272;2022-08-05T11:53:15;3.10;;;2.90;;
17189;SDS011;8710;49.880;8.272;2022-08-05T11:55:52;3.38;;;3.08;;
17189;SDS011;8710;49.880;8.272;2022-08-05T11:58:29;3.00;;;2.70;;
17189;SDS011;8710;49.880;8.272;2022-08-05T12:01:04;3.53;;;2.80;;
17189;SDS011;8710;49.880;8.272;2022-08-05T12:03:39;3.10;;;2.90;;
17189;SDS011;8710;49.880;8.272;2022-08-05T12:06:07;3.33;;;3.03;;
17189;SDS011;8710;49.880;8.272;2022-08-05T12:08:38;3.63;;;3.30;;
17189;SDS011;8710;49.880;8.272;2022-08-05T12:11:07;3.35;;;3.00;;
17189;SDS011;8710;49.880;8.272;2022-08-05T12:13:35;3.33;;;3.03;;
17189;SDS011;8710;49.880;8.272;2022-08-05T12:16:05;3.40;;;3.10;;
17189;SDS011;8710;49.880;8.272;2022-08-05T12:18:33;3.92;;;2.92;;
17189;SDS011;8710;49.880;8.272;2022-08-05T12:21:14;3.72;;;3.05;;
17189;SDS011;8710;49.880;8.272;2022-08-05T12:23:52;3.90;;;3.10;;
17189;SDS011;8710;49.880;8.272;2022-08-05T12:26:29;3.83;;;3.53;;
17189;SDS011;8710;49.880;8.272;2022-08-05T12:28:57;3.42;;;3.13;;
17189;SDS011;8710;49.880;8.272;2022-08-05T12:31:25;4.22;;;3.55;;
17189;SDS011;8710;49.880;8.272;2022-08-05T12:33:52;5.90;;;3.30;;
17189;SDS011;8710;49.880;8.272;2022-08-05T12:36:21;4.35;;;3.35;;
17189;SDS011;8710;49.880;8.272;2022-08-05T12:38:48;3.75;;;3.45;;
17189;SDS011;8710;49.880;8.272;2022-08-05T12:41:15;4.13;;;3.75;;
17189;SDS011;8710;49.880;8.272;2022-08-05T12:43:49;3.97;;;3.38;;
17189;SDS011;8710;49.880;8.272;2022-08-05T12:46:20;3.78;;;3.47;;
17189;SDS011;8710;49.880;8.272;2022-08-05T12:48:56;3.78;;;3.47;;
17189;SDS011;8710;49.880;8.272;2022-08-05T12:51:24;3.47;;;3.20;;
17189;SDS011;8710;49.880;8.272;2022-08-05T12:53:57;4.65;;;3.67;;
17189;SDS011;8710;49.880;8.272;2022-08-05T12:56:27;3.83;;;3.42;;
17189;SDS011;8710;49.880;8.272;2022-08-05T12:59:10;4.00;;;3.70;;
17189;SDS011;8710;49.880;8.272;2022-08-05T13:01:41;4.53;;;3.72;;
17189;SDS011;8710;49.880;8.272;2022-08-05T13:04:11;4.03;;;3.72;;
17189;SDS011;8710;49.880;8.272;2022-08-05T13:06:39;5.60;;;3.72;;
17189;SDS011;8710;49.880;8.272;2022-08-05T13:09:08;4.22;;;3.83;;
17189;SDS011;8710;49.880;8.272;2022-08-05T13:11:39;4.35;;;3.95;;
17189;SDS011;8710;49.880;8.272;2022-08-05T13:14:13;4.38;;;3.97;;
17189;SDS011;8710;49.880;8.272;2022-08-05T13:16:48;4.35;;;3.95;;
17189;SDS011;8710;49.880;8.272;2022-08-05T13:19:22;4.75;;;4.03;;
17189;SDS011;8710;49.880;8.272;2022-08-05T13:21:50;4.55;;;4.15;;
17189;SDS011;8710;49.880;8.272;2022-08-05T13:24:17;5.40;;;4.20;;
17189;SDS011;8710;49.880;8.272;2022-08-05T13:26:45;4.53;;;4.10;;
17189;SDS011;8710;49.880;8.272;2022-08-05T13:29:13;4.50;;;4.10;;
17189;SDS011;8710;49.880;8.272;2022-08-05T13:31:41;4.68;;;4.03;;
17189;SDS011;8710;49.880;8.272;2022-08-05T13:34:08;5.38;;;4.18;;
17189;SDS011;8710;49.880;8.272;2022-08-05T13:36:37;4.75;;;4.22;;
17189;SDS011;8710;49.880;8.272;2022-08-05T13:39:04;4.65;;;3.95;;
17189;SDS011;8710;49.880;8.272;2022-08-05T13:41:32;4.50;;;3.97;;
17189;SDS011;8710;49.880;8.272;2022-08-05T13:43:59;4.50;;;4.10;;
17189;SDS011;8710;49.880;8.272;2022-08-05T13:46:26;5.30;;;3.80;;
17189;SDS011;8710;49.880;8.272;2022-08-05T13:48:54;4.57;;;4.10;;
17189;SDS011;8710;49.880;8.272;2022-08-05T13:51:25;4.35;;;4.00;;
17189;SDS011;8710;49.880;8.272;2022-08-05T13:53:57;4.80;;;4.40;;
17189;SDS011;8710;49.880;8.272;2022-08-05T13:56:24;5.25;;;4.63;;
17189;SDS011;8710;49.880;8.272;2022-08-05T13:58:51;9.13;;;6.63;;
17189;SDS011;8710;49.880;8.272;2022-08-05T14:01:18;7.10;;;6.40;;
17189;SDS011;8710;49.880;8.272;2022-08-05T14:03:46;8.57;;;7.22;;
17189;SDS011;8710;49.880;8.272;2022-08-05T14:06:34;8.48;;;7.70;;
17189;SDS011;8710;49.880;8.272;2022-08-05T14:09:02;9.23;;;8.32;;
17189;SDS011;8710;49.880;8.272;2022-08-05T14:11:29;10.10;;;9.00;;
17189;SDS011;8710;49.880;8.272;2022-08-05T14:13:56;10.00;;;9.00;;
17189;SDS011;8710;49.880;8.272;2022-08-05T14:16:23;17.20;;;10.55;;
17189;SDS011;8710;49.880;8.272;2022-08-05T14:18:50;12.45;;;10.27;;
17189;SDS011;8710;49.880;8.272;2022-08-05T14:21:17;13.52;;;10.65;;
17189;SDS011;8710;49.880;8.272;2022-08-05T14:23:44;11.95;;;10.75;;
17189;SDS011;8710;49.880;8.272;2022-08-05T14:26:13;13.60;;;12.20;;
17189;SDS011;8710;49.880;8.272;2022-08-05T14:28:40;14.05;;;12.65;;
17189;SDS011;8710;49.880;8.272;2022-08-05T14:31:07;15.02;;;13.18;;
17189;SDS011;8710;49.880;8.272;2022-08-05T14:33:34;14.90;;;13.35;;
17189;SDS011;8710;49.880;8.272;2022-08-05T14:36:01;15.63;;;14.02;;
17189;SDS011;8710;49.880;8.272;2022-08-05T14:38:29;16.88;;;15.07;;
17189;SDS011;8710;49.880;8.272;2022-08-05T14:40:56;17.90;;;16.02;;
17189;SDS011;8710;49.880;8.272;2022-08-05T14:43:24;19.15;;;16.63;;
17189;SDS011;8710;49.880;8.272;2022-08-05T14:45:51;19.70;;;15.82;;
17189;SDS011;8710;49.880;8.272;2022-08-05T14:48:18;19.73;;;17.65;;
17189;SDS011;8710;49.880;8.272;2022-08-05T14:50:45;21.48;;;18.95;;
17189;SDS011;8710;49.880;8.272;2022-08-05T14:53:12;20.90;;;18.40;;
17189;SDS011;8710;49.880;8.272;2022-08-05T14:55:39;20.98;;;18.77;;
17189;SDS011;8710;49.880;8.272;2022-08-05T14:58:06;20.50;;;18.30;;
17189;SDS011;8710;49.880;8.272;2022-08-05T15:00:35;21.60;;;19.25;;
17189;SDS011;8710;49.880;8.272;2022-08-05T15:03:03;22.25;;;19.80;;
17189;SDS011;8710;49.880;8.272;2022-08-05T15:05:31;23.05;;;20.55;;
17189;SDS011;8710;49.880;8.272;2022-08-05T15:07:58;23.45;;;20.85;;
17189;SDS011;8710;49.880;8.272;2022-08-05T15:10:25;23.20;;;20.73;;
17189;SDS011;8710;49.880;8.272;2022-08-05T15:12:52;24.80;;;21.65;;
17189;SDS011;8710;49.880;8.272;2022-08-05T15:15:19;24.55;;;20.95;;
17189;SDS011;8710;49.880;8.272;2022-08-05T15:17:48;22.35;;;20.05;;
17189;SDS011;8710;49.880;8.272;2022-08-05T15:20:15;22.55;;;19.73;;
17189;SDS011;8710;49.880;8.272;2022-08-05T15:22:42;19.98;;;17.88;;
17189;SDS011;8710;49.880;8.272;2022-08-05T15:25:09;19.25;;;17.25;;
17189;SDS011;8710;49.880;8.272;2022-08-05T15:27:36;20.10;;;17.25;;